Aérodrome :
LOGIN :

S'inscrire | Disclaimer

   EN    FR    IT 

 










Légende :    VFR   VFR Marginal   IFR   IFR Intensif   IFR Très Intensif
Visi : 
Plafond : 
>= 8 km
>= 3000ft
5 à 8 km
1000 à 3000 ft
1500m à 5 km
500 à 1000 ft
800 à 1500m
200 à 500 ft
< 800m
< 200 ft
Symboles :   Orages  Brouillard  Fortes neiges  Fortes précipitations  Vent > 20 kt
SIGMETs :   Divers  Orages  Givrage  Turbulence  Onde Orograph.  Cendres Volcan.







- Altitude de l'aérodrome : 203 ft
- Code IATA : XMJ
- Voir les cartes d'approche


LFBM - Mont-De-Marsan

DERNIER METAR :
  • 161600Z AUTO 10007KT 070V130 CAVOK 18/05 Q1023 NOSIG

METARs EXPIRÉS :
  • 161530Z AUTO 11006KT 080V140 CAVOK 18/04 Q1023 NOSIG
  • 161500Z AUTO 08006KT 040V120 CAVOK 19/04 Q1024 NOSIG
  • 161430Z AUTO 10007KT 080V140 CAVOK 19/04 Q1024 NOSIG
  • 161400Z AUTO 09004KT 040V160 CAVOK 19/04 Q1024
  • 161330Z AUTO 14005KT 060V190 CAVOK 18/05 Q1025 NOSIG
  • 161300Z AUTO 15006KT 100V170 CAVOK 18/06 Q1025 NOSIG

TAF TAF LFBM
Valide du 16 à 15h jusqu'au 17 à 15h UTC


161400Z 1615/1715 10005KT CAVOK
TEMPO 1703/1708 BKN004
Pas de NOTAMs connus pour ce terrain.



MET'MAP, la Météo Aéronautique d'un coup d'oeil ! - Copyright ORBIFLY Décembre 2007 - Disclaimer

ORBIFLY MET'MAP TEAM :

Programmation & Développement : Alexandra Zaïnal
Conception & Développement : Baudouin d'Aumeries
Co-Programmation & Développement : Marc-Olivier Méhu
Soutien technique & logistique : Manuel Goepfert

Contact : metmap@orbifly.com




SOURCES & CREDITS :

   NOAA